sensor_id;sensor_type;location;lat;lon;timestamp;P1;durP1;ratioP1;P2;durP2;ratioP2
18879;SDS011;9572;52.378;13.404;2024-02-26T00:00:18;11.37;;;5.70;;
18879;SDS011;9572;52.378;13.404;2024-02-26T00:02:45;10.07;;;5.70;;
18879;SDS011;9572;52.378;13.404;2024-02-26T00:05:12;7.83;;;5.37;;
18879;SDS011;9572;52.378;13.404;2024-02-26T00:07:39;7.47;;;5.00;;
18879;SDS011;9572;52.378;13.404;2024-02-26T00:10:06;10.50;;;6.17;;
18879;SDS011;9572;52.378;13.404;2024-02-26T00:12:34;8.73;;;5.40;;
18879;SDS011;9572;52.378;13.404;2024-02-26T00:15:02;10.33;;;5.47;;
18879;SDS011;9572;52.378;13.404;2024-02-26T00:17:29;12.50;;;7.33;;
18879;SDS011;9572;52.378;13.404;2024-02-26T00:19:57;11.70;;;6.63;;
18879;SDS011;9572;52.378;13.404;2024-02-26T00:22:23;10.33;;;6.50;;
18879;SDS011;9572;52.378;13.404;2024-02-26T00:24:50;13.67;;;7.33;;
18879;SDS011;9572;52.378;13.404;2024-02-26T00:27:17;11.03;;;7.23;;
18879;SDS011;9572;52.378;13.404;2024-02-26T00:29:44;14.20;;;7.67;;
18879;SDS011;9572;52.378;13.404;2024-02-26T00:32:12;13.07;;;7.47;;
18879;SDS011;9572;52.378;13.404;2024-02-26T00:34:39;12.30;;;7.37;;
18879;SDS011;9572;52.378;13.404;2024-02-26T00:37:06;13.83;;;8.47;;
18879;SDS011;9572;52.378;13.404;2024-02-26T00:39:33;12.70;;;7.60;;
18879;SDS011;9572;52.378;13.404;2024-02-26T00:42:00;11.83;;;8.13;;
18879;SDS011;9572;52.378;13.404;2024-02-26T00:44:28;12.73;;;7.70;;
18879;SDS011;9572;52.378;13.404;2024-02-26T00:46:54;13.93;;;7.80;;
18879;SDS011;9572;52.378;13.404;2024-02-26T00:49:23;11.40;;;7.17;;
18879;SDS011;9572;52.378;13.404;2024-02-26T00:51:49;13.10;;;7.33;;
18879;SDS011;9572;52.378;13.404;2024-02-26T00:54:16;13.73;;;8.63;;
18879;SDS011;9572;52.378;13.404;2024-02-26T00:56:43;15.83;;;8.77;;
18879;SDS011;9572;52.378;13.404;2024-02-26T00:59:10;12.53;;;7.37;;
18879;SDS011;9572;52.378;13.404;2024-02-26T01:01:37;13.00;;;7.70;;
18879;SDS011;9572;52.378;13.404;2024-02-26T01:04:04;11.43;;;7.70;;
18879;SDS011;9572;52.378;13.404;2024-02-26T01:06:32;15.27;;;8.13;;
18879;SDS011;9572;52.378;13.404;2024-02-26T01:08:59;18.03;;;9.50;;
18879;SDS011;9572;52.378;13.404;2024-02-26T01:11:25;15.07;;;8.67;;
18879;SDS011;9572;52.378;13.404;2024-02-26T01:13:52;16.13;;;9.40;;
18879;SDS011;9572;52.378;13.404;2024-02-26T01:16:21;13.73;;;8.40;;
18879;SDS011;9572;52.378;13.404;2024-02-26T01:18:48;13.50;;;8.43;;
18879;SDS011;9572;52.378;13.404;2024-02-26T01:21:15;14.03;;;8.23;;
18879;SDS011;9572;52.378;13.404;2024-02-26T01:23:43;13.67;;;8.03;;
18879;SDS011;9572;52.378;13.404;2024-02-26T01:26:10;14.57;;;9.03;;
18879;SDS011;9572;52.378;13.404;2024-02-26T01:28:37;14.17;;;8.30;;
18879;SDS011;9572;52.378;13.404;2024-02-26T01:31:03;12.20;;;7.17;;
18879;SDS011;9572;52.378;13.404;2024-02-26T01:33:33;12.63;;;7.60;;
18879;SDS011;9572;52.378;13.404;2024-02-26T01:36:00;17.00;;;8.30;;
18879;SDS011;9572;52.378;13.404;2024-02-26T01:38:27;14.63;;;8.60;;
18879;SDS011;9572;52.378;13.404;2024-02-26T01:40:55;12.97;;;8.27;;
18879;SDS011;9572;52.378;13.404;2024-02-26T01:43:22;16.27;;;8.27;;
18879;SDS011;9572;52.378;13.404;2024-02-26T01:45:49;14.63;;;8.93;;
18879;SDS011;9572;52.378;13.404;2024-02-26T01:48:16;10.97;;;7.50;;
18879;SDS011;9572;52.378;13.404;2024-02-26T01:50:43;19.90;;;8.53;;
18879;SDS011;9572;52.378;13.404;2024-02-26T01:53:10;14.23;;;7.97;;
18879;SDS011;9572;52.378;13.404;2024-02-26T01:55:37;14.20;;;7.60;;
18879;SDS011;9572;52.378;13.404;2024-02-26T01:58:05;14.47;;;8.40;;
18879;SDS011;9572;52.378;13.404;2024-02-26T02:00:32;11.93;;;8.23;;
18879;SDS011;9572;52.378;13.404;2024-02-26T02:03:00;12.57;;;7.87;;
18879;SDS011;9572;52.378;13.404;2024-02-26T02:05:28;14.27;;;8.53;;
18879;SDS011;9572;52.378;13.404;2024-02-26T02:11:18;12.63;;;8.07;;
18879;SDS011;9572;52.378;13.404;2024-02-26T02:13:47;16.93;;;9.90;;
18879;SDS011;9572;52.378;13.404;2024-02-26T02:16:13;14.60;;;9.37;;
18879;SDS011;9572;52.378;13.404;2024-02-26T02:18:50;14.43;;;8.93;;
18879;SDS011;9572;52.378;13.404;2024-02-26T02:24:41;16.23;;;9.03;;
18879;SDS011;9572;52.378;13.404;2024-02-26T02:27:08;13.10;;;8.57;;
18879;SDS011;9572;52.378;13.404;2024-02-26T02:32:54;13.40;;;7.73;;
18879;SDS011;9572;52.378;13.404;2024-02-26T02:42:09;12.70;;;7.60;;
18879;SDS011;9572;52.378;13.404;2024-02-26T02:44:36;14.53;;;7.40;;
18879;SDS011;9572;52.378;13.404;2024-02-26T02:47:03;11.23;;;7.13;;
18879;SDS011;9572;52.378;13.404;2024-02-26T02:49:29;12.10;;;6.17;;
18879;SDS011;9572;52.378;13.404;2024-02-26T02:51:56;10.83;;;5.87;;
18879;SDS011;9572;52.378;13.404;2024-02-26T02:54:23;9.07;;;5.60;;
18879;SDS011;9572;52.378;13.404;2024-02-26T02:56:50;8.97;;;5.90;;
18879;SDS011;9572;52.378;13.404;2024-02-26T02:59:18;11.33;;;7.10;;
18879;SDS011;9572;52.378;13.404;2024-02-26T03:01:45;9.77;;;6.03;;
18879;SDS011;9572;52.378;13.404;2024-02-26T03:04:12;9.27;;;5.67;;
18879;SDS011;9572;52.378;13.404;2024-02-26T03:06:39;9.07;;;6.43;;
18879;SDS011;9572;52.378;13.404;2024-02-26T03:09:05;12.70;;;6.60;;
18879;SDS011;9572;52.378;13.404;2024-02-26T03:11:32;9.60;;;6.40;;
18879;SDS011;9572;52.378;13.404;2024-02-26T03:14:00;9.07;;;6.43;;
18879;SDS011;9572;52.378;13.404;2024-02-26T03:16:28;8.10;;;5.53;;
18879;SDS011;9572;52.378;13.404;2024-02-26T03:18:55;9.53;;;5.97;;
18879;SDS011;9572;52.378;13.404;2024-02-26T03:21:22;6.70;;;5.27;;
18879;SDS011;9572;52.378;13.404;2024-02-26T03:23:50;11.93;;;6.73;;
18879;SDS011;9572;52.378;13.404;2024-02-26T03:26:17;8.73;;;6.30;;
18879;SDS011;9572;52.378;13.404;2024-02-26T03:28:44;11.50;;;6.67;;
18879;SDS011;9572;52.378;13.404;2024-02-26T03:31:11;12.77;;;7.00;;
18879;SDS011;9572;52.378;13.404;2024-02-26T03:33:39;9.43;;;6.60;;
18879;SDS011;9572;52.378;13.404;2024-02-26T03:36:06;9.53;;;6.30;;
18879;SDS011;9572;52.378;13.404;2024-02-26T03:38:33;8.73;;;6.10;;
18879;SDS011;9572;52.378;13.404;2024-02-26T03:41:00;9.97;;;6.07;;
18879;SDS011;9572;52.378;13.404;2024-02-26T03:43:27;9.63;;;6.57;;
18879;SDS011;9572;52.378;13.404;2024-02-26T03:45:53;12.70;;;6.90;;
18879;SDS011;9572;52.378;13.404;2024-02-26T03:48:20;9.03;;;6.30;;
18879;SDS011;9572;52.378;13.404;2024-02-26T03:50:48;7.83;;;5.87;;
18879;SDS011;9572;52.378;13.404;2024-02-26T03:53:15;7.50;;;5.40;;
18879;SDS011;9572;52.378;13.404;2024-02-26T03:55:43;10.17;;;6.67;;
18879;SDS011;9572;52.378;13.404;2024-02-26T03:58:12;8.47;;;6.17;;
18879;SDS011;9572;52.378;13.404;2024-02-26T04:00:38;10.70;;;6.83;;
18879;SDS011;9572;52.378;13.404;2024-02-26T04:03:05;8.70;;;6.13;;
18879;SDS011;9572;52.378;13.404;2024-02-26T04:05:32;9.23;;;5.83;;
18879;SDS011;9572;52.378;13.404;2024-02-26T04:08:00;7.80;;;5.60;;
18879;SDS011;9572;52.378;13.404;2024-02-26T04:10:28;12.43;;;6.40;;
18879;SDS011;9572;52.378;13.404;2024-02-26T04:12:55;8.43;;;5.63;;
18879;SDS011;9572;52.378;13.404;2024-02-26T04:15:22;10.50;;;6.40;;
18879;SDS011;9572;52.378;13.404;2024-02-26T04:17:49;10.60;;;6.50;;
18879;SDS011;9572;52.378;13.404;2024-02-26T04:20:16;10.47;;;6.63;;
18879;SDS011;9572;52.378;13.404;2024-02-26T04:22:43;8.47;;;6.07;;
18879;SDS011;9572;52.378;13.404;2024-02-26T04:25:11;9.23;;;6.03;;
18879;SDS011;9572;52.378;13.404;2024-02-26T04:27:38;7.93;;;6.00;;
18879;SDS011;9572;52.378;13.404;2024-02-26T04:30:06;10.67;;;6.10;;
18879;SDS011;9572;52.378;13.404;2024-02-26T04:32:33;9.33;;;5.90;;
18879;SDS011;9572;52.378;13.404;2024-02-26T04:35:01;9.83;;;5.53;;
18879;SDS011;9572;52.378;13.404;2024-02-26T04:37:28;7.63;;;5.17;;
18879;SDS011;9572;52.378;13.404;2024-02-26T04:39:57;7.33;;;5.10;;
18879;SDS011;9572;52.378;13.404;2024-02-26T04:42:25;7.13;;;5.40;;
18879;SDS011;9572;52.378;13.404;2024-02-26T04:44:52;7.83;;;5.87;;
18879;SDS011;9572;52.378;13.404;2024-02-26T04:47:20;9.50;;;5.70;;
18879;SDS011;9572;52.378;13.404;2024-02-26T04:49:47;8.03;;;5.50;;
18879;SDS011;9572;52.378;13.404;2024-02-26T04:52:15;8.80;;;6.20;;
18879;SDS011;9572;52.378;13.404;2024-02-26T04:54:42;9.17;;;5.33;;
18879;SDS011;9572;52.378;13.404;2024-02-26T04:57:08;8.93;;;5.90;;
18879;SDS011;9572;52.378;13.404;2024-02-26T04:59:37;8.57;;;5.90;;
18879;SDS011;9572;52.378;13.404;2024-02-26T05:02:05;9.07;;;5.57;;
18879;SDS011;9572;52.378;13.404;2024-02-26T05:04:32;10.07;;;6.53;;
18879;SDS011;9572;52.378;13.404;2024-02-26T05:06:59;10.13;;;5.87;;
18879;SDS011;9572;52.378;13.404;2024-02-26T05:09:26;9.33;;;5.93;;
18879;SDS011;9572;52.378;13.404;2024-02-26T05:11:53;7.53;;;5.30;;
18879;SDS011;9572;52.378;13.404;2024-02-26T05:14:19;8.33;;;5.80;;
18879;SDS011;9572;52.378;13.404;2024-02-26T05:16:48;10.13;;;6.43;;
18879;SDS011;9572;52.378;13.404;2024-02-26T05:19:15;8.50;;;5.73;;
18879;SDS011;9572;52.378;13.404;2024-02-26T05:21:41;8.83;;;6.50;;
18879;SDS011;9572;52.378;13.404;2024-02-26T05:24:09;9.27;;;6.20;;
18879;SDS011;9572;52.378;13.404;2024-02-26T05:26:36;9.10;;;6.27;;
18879;SDS011;9572;52.378;13.404;2024-02-26T05:29:03;8.33;;;5.77;;
18879;SDS011;9572;52.378;13.404;2024-02-26T05:31:30;7.77;;;5.60;;
18879;SDS011;9572;52.378;13.404;2024-02-26T05:33:58;10.33;;;7.03;;
18879;SDS011;9572;52.378;13.404;2024-02-26T05:36:25;10.07;;;6.90;;
18879;SDS011;9572;52.378;13.404;2024-02-26T05:38:53;10.23;;;7.23;;
18879;SDS011;9572;52.378;13.404;2024-02-26T05:41:20;11.10;;;7.27;;
18879;SDS011;9572;52.378;13.404;2024-02-26T05:43:51;9.47;;;6.73;;
18879;SDS011;9572;52.378;13.404;2024-02-26T05:46:18;11.03;;;7.23;;
18879;SDS011;9572;52.378;13.404;2024-02-26T05:48:47;12.40;;;8.53;;
18879;SDS011;9572;52.378;13.404;2024-02-26T05:51:16;15.97;;;9.30;;
18879;SDS011;9572;52.378;13.404;2024-02-26T05:53:43;15.07;;;8.83;;
18879;SDS011;9572;52.378;13.404;2024-02-26T05:56:10;11.73;;;7.83;;
18879;SDS011;9572;52.378;13.404;2024-02-26T05:58:37;13.83;;;8.37;;
18879;SDS011;9572;52.378;13.404;2024-02-26T06:01:04;11.60;;;7.67;;
18879;SDS011;9572;52.378;13.404;2024-02-26T06:03:30;11.70;;;8.40;;
18879;SDS011;9572;52.378;13.404;2024-02-26T06:05:57;13.57;;;8.57;;
18879;SDS011;9572;52.378;13.404;2024-02-26T06:08:25;13.00;;;7.47;;
18879;SDS011;9572;52.378;13.404;2024-02-26T06:10:52;15.57;;;7.93;;
18879;SDS011;9572;52.378;13.404;2024-02-26T06:13:19;11.97;;;7.80;;
18879;SDS011;9572;52.378;13.404;2024-02-26T06:15:46;12.33;;;7.57;;
18879;SDS011;9572;52.378;13.404;2024-02-26T06:18:13;15.83;;;9.00;;
18879;SDS011;9572;52.378;13.404;2024-02-26T06:20:40;15.73;;;9.47;;
18879;SDS011;9572;52.378;13.404;2024-02-26T06:23:07;16.60;;;9.63;;
18879;SDS011;9572;52.378;13.404;2024-02-26T06:25:36;16.90;;;9.60;;
18879;SDS011;9572;52.378;13.404;2024-02-26T06:28:03;16.70;;;9.53;;
18879;SDS011;9572;52.378;13.404;2024-02-26T06:30:31;18.33;;;10.40;;
18879;SDS011;9572;52.378;13.404;2024-02-26T06:32:58;16.90;;;10.37;;
18879;SDS011;9572;52.378;13.404;2024-02-26T06:35:25;12.30;;;8.47;;
18879;SDS011;9572;52.378;13.404;2024-02-26T06:37:53;14.17;;;9.93;;
18879;SDS011;9572;52.378;13.404;2024-02-26T06:40:20;16.27;;;10.60;;
18879;SDS011;9572;52.378;13.404;2024-02-26T06:42:48;18.60;;;10.70;;
18879;SDS011;9572;52.378;13.404;2024-02-26T06:45:15;20.03;;;10.73;;
18879;SDS011;9572;52.378;13.404;2024-02-26T06:47:42;18.57;;;11.13;;
18879;SDS011;9572;52.378;13.404;2024-02-26T06:50:11;15.90;;;10.67;;
18879;SDS011;9572;52.378;13.404;2024-02-26T06:52:38;16.37;;;10.93;;
18879;SDS011;9572;52.378;13.404;2024-02-26T06:55:05;22.47;;;11.67;;
18879;SDS011;9572;52.378;13.404;2024-02-26T06:57:33;13.53;;;9.87;;
18879;SDS011;9572;52.378;13.404;2024-02-26T07:00:01;20.60;;;11.30;;
18879;SDS011;9572;52.378;13.404;2024-02-26T07:02:29;18.23;;;11.43;;
18879;SDS011;9572;52.378;13.404;2024-02-26T07:04:56;15.60;;;10.60;;
18879;SDS011;9572;52.378;13.404;2024-02-26T07:07:23;17.30;;;10.80;;
18879;SDS011;9572;52.378;13.404;2024-02-26T07:09:51;18.07;;;11.23;;
18879;SDS011;9572;52.378;13.404;2024-02-26T07:12:17;14.20;;;10.00;;
18879;SDS011;9572;52.378;13.404;2024-02-26T07:14:46;16.60;;;10.60;;
18879;SDS011;9572;52.378;13.404;2024-02-26T07:17:15;14.23;;;9.97;;
18879;SDS011;9572;52.378;13.404;2024-02-26T07:19:42;16.43;;;10.90;;
18879;SDS011;9572;52.378;13.404;2024-02-26T07:22:09;17.50;;;10.90;;
18879;SDS011;9572;52.378;13.404;2024-02-26T07:24:36;18.27;;;11.40;;
18879;SDS011;9572;52.378;13.404;2024-02-26T07:27:03;21.43;;;12.17;;
18879;SDS011;9572;52.378;13.404;2024-02-26T07:29:30;17.97;;;11.67;;
18879;SDS011;9572;52.378;13.404;2024-02-26T07:31:57;17.73;;;11.70;;
18879;SDS011;9572;52.378;13.404;2024-02-26T07:34:25;17.57;;;11.90;;
18879;SDS011;9572;52.378;13.404;2024-02-26T07:36:54;18.77;;;12.30;;
18879;SDS011;9572;52.378;13.404;2024-02-26T07:39:21;20.33;;;12.77;;
18879;SDS011;9572;52.378;13.404;2024-02-26T07:41:48;20.63;;;12.90;;
18879;SDS011;9572;52.378;13.404;2024-02-26T07:44:16;20.07;;;13.33;;
18879;SDS011;9572;52.378;13.404;2024-02-26T07:46:43;25.20;;;14.60;;
18879;SDS011;9572;52.378;13.404;2024-02-26T07:49:10;25.27;;;15.03;;
18879;SDS011;9572;52.378;13.404;2024-02-26T07:51:38;23.27;;;13.00;;
18879;SDS011;9572;52.378;13.404;2024-02-26T07:54:05;24.20;;;14.60;;
18879;SDS011;9572;52.378;13.404;2024-02-26T07:56:32;21.63;;;14.27;;
18879;SDS011;9572;52.378;13.404;2024-02-26T07:58:59;26.10;;;13.70;;
18879;SDS011;9572;52.378;13.404;2024-02-26T08:01:26;25.47;;;13.50;;
18879;SDS011;9572;52.378;13.404;2024-02-26T08:03:53;21.40;;;13.50;;
18879;SDS011;9572;52.378;13.404;2024-02-26T08:06:19;23.87;;;14.40;;
18879;SDS011;9572;52.378;13.404;2024-02-26T08:08:48;25.87;;;15.03;;
18879;SDS011;9572;52.378;13.404;2024-02-26T08:11:15;26.23;;;15.40;;
18879;SDS011;9572;52.378;13.404;2024-02-26T08:13:42;31.27;;;15.37;;
18879;SDS011;9572;52.378;13.404;2024-02-26T08:16:08;24.30;;;14.53;;
18879;SDS011;9572;52.378;13.404;2024-02-26T08:18:35;25.67;;;15.13;;
18879;SDS011;9572;52.378;13.404;2024-02-26T08:21:02;24.47;;;14.50;;
18879;SDS011;9572;52.378;13.404;2024-02-26T08:23:30;25.93;;;15.40;;
18879;SDS011;9572;52.378;13.404;2024-02-26T08:25:58;27.93;;;15.87;;
18879;SDS011;9572;52.378;13.404;2024-02-26T08:28:25;26.60;;;15.60;;
18879;SDS011;9572;52.378;13.404;2024-02-26T08:30:52;26.07;;;16.00;;
18879;SDS011;9572;52.378;13.404;2024-02-26T08:33:19;27.30;;;15.20;;
18879;SDS011;9572;52.378;13.404;2024-02-26T08:35:45;26.60;;;15.67;;
18879;SDS011;9572;52.378;13.404;2024-02-26T08:38:12;21.73;;;14.70;;
18879;SDS011;9572;52.378;13.404;2024-02-26T08:40:39;23.93;;;15.40;;
18879;SDS011;9572;52.378;13.404;2024-02-26T08:43:07;27.77;;;15.50;;
18879;SDS011;9572;52.378;13.404;2024-02-26T08:45:34;26.20;;;15.73;;
18879;SDS011;9572;52.378;13.404;2024-02-26T08:48:02;28.10;;;15.77;;
18879;SDS011;9572;52.378;13.404;2024-02-26T08:50:29;27.87;;;16.03;;
18879;SDS011;9572;52.378;13.404;2024-02-26T08:52:56;23.77;;;15.70;;
18879;SDS011;9572;52.378;13.404;2024-02-26T08:55:23;24.43;;;15.13;;
18879;SDS011;9572;52.378;13.404;2024-02-26T08:57:50;26.33;;;15.87;;
18879;SDS011;9572;52.378;13.404;2024-02-26T09:00:18;22.67;;;15.23;;
18879;SDS011;9572;52.378;13.404;2024-02-26T09:02:45;27.23;;;15.90;;
18879;SDS011;9572;52.378;13.404;2024-02-26T09:05:13;25.27;;;15.00;;
18879;SDS011;9572;52.378;13.404;2024-02-26T09:07:40;25.00;;;15.17;;
18879;SDS011;9572;52.378;13.404;2024-02-26T09:10:08;28.43;;;14.90;;
18879;SDS011;9572;52.378;13.404;2024-02-26T09:12:35;24.93;;;15.07;;
18879;SDS011;9572;52.378;13.404;2024-02-26T09:15:02;24.63;;;15.20;;
18879;SDS011;9572;52.378;13.404;2024-02-26T09:17:31;23.87;;;15.07;;
18879;SDS011;9572;52.378;13.404;2024-02-26T09:19:58;28.13;;;14.80;;
18879;SDS011;9572;52.378;13.404;2024-02-26T09:22:25;26.67;;;15.53;;
18879;SDS011;9572;52.378;13.404;2024-02-26T09:24:51;26.40;;;15.50;;
18879;SDS011;9572;52.378;13.404;2024-02-26T09:27:18;22.57;;;14.57;;
18879;SDS011;9572;52.378;13.404;2024-02-26T09:29:45;27.33;;;14.83;;
18879;SDS011;9572;52.378;13.404;2024-02-26T09:32:12;24.27;;;15.07;;
18879;SDS011;9572;52.378;13.404;2024-02-26T09:34:41;27.17;;;15.37;;
18879;SDS011;9572;52.378;13.404;2024-02-26T09:37:08;26.27;;;16.43;;
18879;SDS011;9572;52.378;13.404;2024-02-26T09:39:35;23.63;;;14.83;;
18879;SDS011;9572;52.378;13.404;2024-02-26T09:42:02;28.13;;;15.20;;
18879;SDS011;9572;52.378;13.404;2024-02-26T09:44:31;27.67;;;14.43;;
18879;SDS011;9572;52.378;13.404;2024-02-26T09:47:03;23.47;;;14.07;;
18879;SDS011;9572;52.378;13.404;2024-02-26T09:49:31;28.00;;;14.47;;
18879;SDS011;9572;52.378;13.404;2024-02-26T09:52:00;21.23;;;13.60;;
18879;SDS011;9572;52.378;13.404;2024-02-26T09:54:28;24.00;;;13.00;;
18879;SDS011;9572;52.378;13.404;2024-02-26T09:56:57;24.03;;;12.37;;
18879;SDS011;9572;52.378;13.404;2024-02-26T09:59:29;18.80;;;12.20;;
18879;SDS011;9572;52.378;13.404;2024-02-26T10:02:00;23.07;;;13.03;;
18879;SDS011;9572;52.378;13.404;2024-02-26T10:04:28;26.13;;;13.83;;
18879;SDS011;9572;52.378;13.404;2024-02-26T10:06:55;22.43;;;13.13;;
18879;SDS011;9572;52.378;13.404;2024-02-26T10:09:26;18.90;;;12.83;;
18879;SDS011;9572;52.378;13.404;2024-02-26T10:11:53;24.70;;;13.80;;
18879;SDS011;9572;52.378;13.404;2024-02-26T10:14:20;25.87;;;14.47;;
18879;SDS011;9572;52.378;13.404;2024-02-26T10:16:47;21.93;;;12.93;;
18879;SDS011;9572;52.378;13.404;2024-02-26T10:19:24;21.13;;;12.00;;
18879;SDS011;9572;52.378;13.404;2024-02-26T10:21:53;20.73;;;12.60;;
18879;SDS011;9572;52.378;13.404;2024-02-26T10:24:22;43.97;;;22.13;;
18879;SDS011;9572;52.378;13.404;2024-02-26T10:26:51;26.57;;;12.37;;
18879;SDS011;9572;52.378;13.404;2024-02-26T10:29:18;17.73;;;11.00;;
18879;SDS011;9572;52.378;13.404;2024-02-26T10:31:46;20.57;;;10.97;;
18879;SDS011;9572;52.378;13.404;2024-02-26T10:34:13;17.70;;;10.50;;
18879;SDS011;9572;52.378;13.404;2024-02-26T10:36:41;20.07;;;10.03;;
18879;SDS011;9572;52.378;13.404;2024-02-26T10:39:09;18.03;;;10.63;;
18879;SDS011;9572;52.378;13.404;2024-02-26T10:41:37;18.13;;;10.20;;
18879;SDS011;9572;52.378;13.404;2024-02-26T10:44:07;14.53;;;9.40;;
18879;SDS011;9572;52.378;13.404;2024-02-26T10:46:35;16.47;;;9.30;;
18879;SDS011;9572;52.378;13.404;2024-02-26T10:49:03;16.17;;;9.60;;
18879;SDS011;9572;52.378;13.404;2024-02-26T10:51:33;14.57;;;9.37;;
18879;SDS011;9572;52.378;13.404;2024-02-26T10:54:04;14.27;;;9.57;;
18879;SDS011;9572;52.378;13.404;2024-02-26T10:56:33;14.77;;;9.27;;
18879;SDS011;9572;52.378;13.404;2024-02-26T10:59:00;14.97;;;9.10;;
18879;SDS011;9572;52.378;13.404;2024-02-26T11:01:29;13.93;;;9.10;;
18879;SDS011;9572;52.378;13.404;2024-02-26T11:03:57;15.20;;;8.40;;
18879;SDS011;9572;52.378;13.404;2024-02-26T11:06:26;14.80;;;9.10;;
18879;SDS011;9572;52.378;13.404;2024-02-26T11:08:54;17.20;;;8.57;;
18879;SDS011;9572;52.378;13.404;2024-02-26T11:11:22;19.83;;;8.20;;
18879;SDS011;9572;52.378;13.404;2024-02-26T11:13:49;11.40;;;7.23;;
18879;SDS011;9572;52.378;13.404;2024-02-26T11:16:20;15.03;;;7.40;;
18879;SDS011;9572;52.378;13.404;2024-02-26T11:18:49;10.33;;;6.90;;
18879;SDS011;9572;52.378;13.404;2024-02-26T11:21:19;11.83;;;6.67;;
18879;SDS011;9572;52.378;13.404;2024-02-26T11:23:52;13.47;;;7.30;;
18879;SDS011;9572;52.378;13.404;2024-02-26T11:26:19;13.73;;;7.47;;
18879;SDS011;9572;52.378;13.404;2024-02-26T11:28:48;10.73;;;7.00;;
18879;SDS011;9572;52.378;13.404;2024-02-26T11:31:17;9.77;;;7.10;;
18879;SDS011;9572;52.378;13.404;2024-02-26T11:33:52;11.57;;;7.30;;
18879;SDS011;9572;52.378;13.404;2024-02-26T11:36:20;13.00;;;7.20;;
18879;SDS011;9572;52.378;13.404;2024-02-26T11:38:49;11.13;;;7.33;;
18879;SDS011;9572;52.378;13.404;2024-02-26T11:41:17;9.60;;;7.00;;
18879;SDS011;9572;52.378;13.404;2024-02-26T11:43:50;8.20;;;6.03;;
18879;SDS011;9572;52.378;13.404;2024-02-26T11:46:24;9.17;;;6.10;;
18879;SDS011;9572;52.378;13.404;2024-02-26T11:48:55;9.30;;;5.43;;
18879;SDS011;9572;52.378;13.404;2024-02-26T11:51:26;10.73;;;6.27;;
18879;SDS011;9572;52.378;13.404;2024-02-26T11:53:54;9.87;;;5.97;;
18879;SDS011;9572;52.378;13.404;2024-02-26T11:56:23;8.77;;;5.40;;
18879;SDS011;9572;52.378;13.404;2024-02-26T11:58:59;7.47;;;5.70;;
18879;SDS011;9572;52.378;13.404;2024-02-26T12:01:36;10.57;;;6.47;;
18879;SDS011;9572;52.378;13.404;2024-02-26T12:04:11;9.00;;;5.73;;
18879;SDS011;9572;52.378;13.404;2024-02-26T12:06:40;11.67;;;6.50;;
18879;SDS011;9572;52.378;13.404;2024-02-26T12:09:11;9.53;;;5.70;;
18879;SDS011;9572;52.378;13.404;2024-02-26T12:11:39;16.05;;;5.55;;
18879;SDS011;9572;52.378;13.404;2024-02-26T12:14:07;11.43;;;5.70;;
18879;SDS011;9572;52.378;13.404;2024-02-26T12:16:35;10.47;;;5.07;;
18879;SDS011;9572;52.378;13.404;2024-02-26T12:19:03;13.50;;;7.87;;
18879;SDS011;9572;52.378;13.404;2024-02-26T12:21:34;7.03;;;4.88;;
18879;SDS011;9572;52.378;13.404;2024-02-26T12:24:09;10.23;;;5.37;;
18879;SDS011;9572;52.378;13.404;2024-02-26T12:26:38;7.27;;;4.80;;
18879;SDS011;9572;52.378;13.404;2024-02-26T12:29:05;10.60;;;5.70;;
18879;SDS011;9572;52.378;13.404;2024-02-26T12:31:32;7.30;;;4.90;;
18879;SDS011;9572;52.378;13.404;2024-02-26T12:34:02;7.50;;;4.80;;
18879;SDS011;9572;52.378;13.404;2024-02-26T12:36:29;8.63;;;4.93;;
18879;SDS011;9572;52.378;13.404;2024-02-26T12:38:57;6.90;;;4.27;;
18879;SDS011;9572;52.378;13.404;2024-02-26T12:41:25;8.40;;;4.70;;
18879;SDS011;9572;52.378;13.404;2024-02-26T12:43:53;7.18;;;4.57;;
18879;SDS011;9572;52.378;13.404;2024-02-26T12:46:21;5.05;;;3.67;;
18879;SDS011;9572;52.378;13.404;2024-02-26T12:48:48;7.35;;;3.90;;
18879;SDS011;9572;52.378;13.404;2024-02-26T12:51:15;5.78;;;3.67;;
18879;SDS011;9572;52.378;13.404;2024-02-26T12:53:43;3.47;;;2.90;;
18879;SDS011;9572;52.378;13.404;2024-02-26T12:56:12;5.63;;;3.47;;
18879;SDS011;9572;52.378;13.404;2024-02-26T12:58:39;5.18;;;3.60;;
18879;SDS011;9572;52.378;13.404;2024-02-26T13:01:07;7.35;;;3.88;;
18879;SDS011;9572;52.378;13.404;2024-02-26T13:03:39;5.80;;;4.30;;
18879;SDS011;9572;52.378;13.404;2024-02-26T13:06:07;5.07;;;3.80;;
18879;SDS011;9572;52.378;13.404;2024-02-26T13:08:34;5.72;;;3.60;;
18879;SDS011;9572;52.378;13.404;2024-02-26T13:11:01;7.18;;;3.75;;
18879;SDS011;9572;52.378;13.404;2024-02-26T13:13:30;6.50;;;3.78;;
18879;SDS011;9572;52.378;13.404;2024-02-26T13:16:03;7.53;;;3.58;;
18879;SDS011;9572;52.378;13.404;2024-02-26T13:18:33;6.40;;;3.80;;
18879;SDS011;9572;52.378;13.404;2024-02-26T13:21:07;5.95;;;3.63;;
18879;SDS011;9572;52.378;13.404;2024-02-26T13:23:36;5.50;;;4.03;;
18879;SDS011;9572;52.378;13.404;2024-02-26T13:26:03;7.22;;;4.40;;
18879;SDS011;9572;52.378;13.404;2024-02-26T13:28:31;8.50;;;3.97;;
18879;SDS011;9572;52.378;13.404;2024-02-26T13:30:58;7.05;;;3.90;;
18879;SDS011;9572;52.378;13.404;2024-02-26T13:33:28;9.88;;;4.00;;
18879;SDS011;9572;52.378;13.404;2024-02-26T13:35:56;7.60;;;4.82;;
18879;SDS011;9572;52.378;13.404;2024-02-26T13:38:23;10.38;;;5.20;;
18879;SDS011;9572;52.378;13.404;2024-02-26T13:40:50;12.05;;;5.82;;
18879;SDS011;9572;52.378;13.404;2024-02-26T13:43:18;7.60;;;5.35;;
18879;SDS011;9572;52.378;13.404;2024-02-26T13:45:46;11.15;;;6.00;;
18879;SDS011;9572;52.378;13.404;2024-02-26T13:48:13;11.38;;;5.97;;
18879;SDS011;9572;52.378;13.404;2024-02-26T13:50:41;10.18;;;6.47;;
18879;SDS011;9572;52.378;13.404;2024-02-26T13:53:10;10.07;;;5.97;;
18879;SDS011;9572;52.378;13.404;2024-02-26T13:55:37;10.02;;;6.53;;
18879;SDS011;9572;52.378;13.404;2024-02-26T13:58:05;11.90;;;6.97;;
18879;SDS011;9572;52.378;13.404;2024-02-26T14:00:32;9.60;;;5.93;;
18879;SDS011;9572;52.378;13.404;2024-02-26T14:03:01;9.55;;;5.88;;
18879;SDS011;9572;52.378;13.404;2024-02-26T14:05:28;7.93;;;5.55;;
18879;SDS011;9572;52.378;13.404;2024-02-26T14:07:55;9.02;;;5.97;;
18879;SDS011;9572;52.378;13.404;2024-02-26T14:10:22;12.13;;;6.55;;
18879;SDS011;9572;52.378;13.404;2024-02-26T14:12:49;10.32;;;7.15;;
18879;SDS011;9572;52.378;13.404;2024-02-26T14:15:16;10.15;;;6.03;;
18879;SDS011;9572;52.378;13.404;2024-02-26T14:17:43;9.32;;;6.18;;
18879;SDS011;9572;52.378;13.404;2024-02-26T14:20:12;11.32;;;6.13;;
18879;SDS011;9572;52.378;13.404;2024-02-26T14:22:39;13.32;;;6.57;;
18879;SDS011;9572;52.378;13.404;2024-02-26T14:25:06;8.40;;;5.85;;
18879;SDS011;9572;52.378;13.404;2024-02-26T14:27:34;10.93;;;6.55;;
18879;SDS011;9572;52.378;13.404;2024-02-26T14:30:01;10.77;;;6.35;;
18879;SDS011;9572;52.378;13.404;2024-02-26T14:32:28;11.80;;;6.68;;
18879;SDS011;9572;52.378;13.404;2024-02-26T14:34:56;10.63;;;6.40;;
18879;SDS011;9572;52.378;13.404;2024-02-26T14:37:24;12.17;;;6.90;;
18879;SDS011;9572;52.378;13.404;2024-02-26T14:39:51;11.03;;;6.40;;
18879;SDS011;9572;52.378;13.404;2024-02-26T14:42:18;10.67;;;6.83;;
18879;SDS011;9572;52.378;13.404;2024-02-26T14:44:45;12.98;;;7.40;;
18879;SDS011;9572;52.378;13.404;2024-02-26T14:47:12;11.93;;;7.53;;
18879;SDS011;9572;52.378;13.404;2024-02-26T14:49:39;11.93;;;7.10;;
18879;SDS011;9572;52.378;13.404;2024-02-26T14:52:06;11.83;;;7.87;;